createdAt,value
2017-11-19T00:00:22.816Z,2.9
2017-11-19T00:01:22.713Z,2.9
2017-11-19T00:02:21.845Z,2.9
2017-11-19T00:03:22.094Z,2.9
2017-11-19T00:04:21.909Z,2.9
2017-11-19T00:05:22.002Z,2.9
2017-11-19T00:06:22.308Z,2.9
2017-11-19T00:07:22.302Z,2.9
2017-11-19T00:08:22.014Z,2.9
2017-11-19T00:09:22.305Z,2.9
2017-11-19T00:10:22.061Z,2.9
2017-11-19T00:11:22.299Z,2.9
2017-11-19T00:12:22.286Z,2.8
2017-11-19T00:13:21.976Z,2.8
2017-11-19T00:14:21.829Z,2.8
2017-11-19T00:15:21.909Z,2.8
2017-11-19T00:16:21.747Z,2.8
2017-11-19T00:17:22.050Z,2.7
2017-11-19T00:18:22.067Z,2.7
2017-11-19T00:19:22.210Z,2.7
2017-11-19T00:20:22.084Z,2.7
2017-11-19T00:21:22.093Z,2.7
2017-11-19T00:22:21.855Z,2.6
2017-11-19T00:23:22.061Z,2.6
2017-11-19T00:24:21.978Z,2.6
2017-11-19T00:25:21.704Z,2.5
2017-11-19T00:26:21.872Z,2.5
2017-11-19T00:27:22.213Z,2.4
2017-11-19T00:28:22.157Z,2.4
2017-11-19T00:29:21.882Z,2.4
2017-11-19T00:30:22.797Z,2.3
2017-11-19T00:31:21.743Z,2.3
2017-11-19T00:32:21.768Z,2.3
2017-11-19T00:33:21.982Z,2.2
2017-11-19T00:34:21.936Z,2.2
2017-11-19T00:35:21.887Z,2.2
2017-11-19T00:36:23.878Z,2.2
2017-11-19T00:37:21.798Z,2.2
2017-11-19T00:38:21.605Z,2.2
2017-11-19T00:39:21.749Z,2.2
2017-11-19T00:40:21.782Z,2.1
2017-11-19T00:41:21.893Z,2.1
2017-11-19T00:42:21.627Z,2.1
2017-11-19T00:43:21.828Z,1.9
2017-11-19T00:44:21.825Z,1.9
2017-11-19T00:45:21.846Z,1.9
2017-11-19T00:46:21.795Z,1.9
2017-11-19T00:47:21.758Z,1.9
2017-11-19T00:48:21.908Z,1.7
2017-11-19T00:49:21.822Z,1.7
2017-11-19T00:50:21.795Z,1.6
2017-11-19T00:51:21.641Z,1.6
2017-11-19T00:52:21.677Z,1.6
2017-11-19T00:53:21.883Z,1.5
2017-11-19T00:54:21.854Z,1.5
2017-11-19T00:55:22.428Z,1.5
2017-11-19T00:56:21.870Z,1.5
2017-11-19T00:57:21.600Z,1.5
2017-11-19T00:58:21.652Z,1.5
2017-11-19T00:59:21.863Z,1.5
2017-11-19T01:00:21.861Z,1.5
2017-11-19T01:01:21.868Z,1.5
2017-11-19T01:02:21.879Z,1.5
2017-11-19T01:03:21.903Z,1.5
2017-11-19T01:04:21.632Z,1.5
2017-11-19T01:05:31.652Z,1.5
2017-11-19T01:06:21.853Z,1.5
2017-11-19T01:07:21.826Z,1.5
2017-11-19T01:08:21.633Z,1.6
2017-11-19T01:09:21.872Z,1.6
2017-11-19T01:10:21.903Z,1.6
2017-11-19T01:11:21.897Z,1.6
2017-11-19T01:12:21.673Z,1.6
2017-11-19T01:13:21.653Z,1.7
2017-11-19T01:14:21.686Z,1.7
2017-11-19T01:15:21.910Z,1.7
2017-11-19T01:16:21.862Z,1.7
2017-11-19T01:17:21.934Z,1.7
2017-11-19T01:18:21.937Z,1.7
2017-11-19T01:19:21.902Z,1.7
2017-11-19T01:20:21.883Z,1.7
2017-11-19T01:21:21.870Z,1.7
2017-11-19T01:22:21.909Z,1.7
2017-11-19T01:23:21.897Z,1.7
2017-11-19T01:24:21.642Z,1.7
2017-11-19T01:25:21.754Z,1.7
2017-11-19T01:26:21.642Z,1.7
2017-11-19T01:27:21.867Z,1.7
2017-11-19T01:28:21.667Z,1.7
2017-11-19T01:29:21.893Z,1.7
2017-11-19T01:30:21.849Z,1.7
2017-11-19T01:31:21.878Z,1.7
2017-11-19T01:32:21.704Z,1.7
2017-11-19T01:33:22.438Z,1.7
2017-11-19T01:34:21.675Z,1.7
2017-11-19T01:35:21.907Z,1.7
2017-11-19T01:36:21.942Z,1.7
2017-11-19T01:37:21.884Z,1.7
2017-11-19T01:38:21.907Z,1.7
2017-11-19T01:39:21.933Z,1.7
2017-11-19T01:40:21.909Z,1.7
2017-11-19T01:41:21.981Z,1.7
2017-11-19T01:42:21.904Z,1.7
2017-11-19T01:43:21.915Z,1.7
2017-11-19T01:44:21.944Z,1.7
2017-11-19T01:45:21.907Z,1.7
2017-11-19T01:46:21.954Z,1.7
2017-11-19T01:47:21.960Z,1.7
2017-11-19T01:48:21.738Z,1.7
2017-11-19T01:49:21.937Z,1.6
2017-11-19T01:50:21.945Z,1.6
2017-11-19T01:51:21.986Z,1.6
2017-11-19T01:52:21.729Z,1.6
2017-11-19T01:53:21.982Z,1.6
2017-11-19T01:54:21.922Z,1.5
2017-11-19T01:55:21.966Z,1.5
2017-11-19T01:56:21.952Z,1.5
2017-11-19T01:57:21.991Z,1.5
2017-11-19T01:58:21.760Z,1.5
2017-11-19T01:59:22.010Z,1.4
2017-11-19T02:00:21.996Z,1.4
2017-11-19T02:01:21.753Z,1.4
2017-11-19T02:02:22.062Z,1.4
2017-11-19T02:03:21.968Z,1.4
2017-11-19T02:04:21.964Z,1.3
2017-11-19T02:05:21.917Z,1.3
2017-11-19T02:06:21.703Z,1.3
2017-11-19T02:07:21.992Z,1.3
2017-11-19T02:08:21.975Z,1.3
2017-11-19T02:09:22.002Z,1.0
2017-11-19T02:10:21.984Z,1.0
2017-11-19T02:11:21.759Z,1.0
2017-11-19T02:12:21.965Z,0.9
2017-11-19T02:13:21.993Z,0.9
2017-11-19T02:14:22.008Z,0.8
2017-11-19T02:15:21.998Z,0.8
2017-11-19T02:16:22.378Z,0.8
2017-11-19T02:17:21.964Z,0.7
2017-11-19T02:18:21.814Z,0.7
2017-11-19T02:19:22.000Z,0.7
2017-11-19T02:20:21.990Z,0.7
2017-11-19T02:21:21.763Z,0.7
2017-11-19T02:22:21.957Z,0.6
2017-11-19T02:23:21.783Z,0.6
2017-11-19T02:24:21.826Z,0.6
2017-11-19T02:25:21.801Z,0.6
2017-11-19T02:27:38.902Z,0.5
2017-11-19T02:28:39.003Z,0.5
2017-11-19T02:29:38.888Z,0.6
2017-11-19T02:30:38.884Z,0.6
2017-11-19T02:31:38.695Z,0.6
2017-11-19T02:32:38.656Z,0.6
2017-11-19T02:33:38.962Z,0.6
2017-11-19T02:34:38.980Z,0.6
2017-11-19T02:35:38.944Z,0.6
2017-11-19T02:36:38.980Z,0.6
2017-11-19T02:37:38.947Z,0.6
2017-11-19T02:38:38.923Z,0.6
2017-11-19T02:39:38.918Z,0.6
2017-11-19T02:40:38.916Z,0.6
2017-11-19T02:41:39.014Z,0.6
2017-11-19T02:42:38.701Z,0.6
2017-11-19T02:43:38.722Z,0.6
2017-11-19T02:44:38.945Z,0.7
2017-11-19T02:45:38.980Z,0.7
2017-11-19T02:46:39.001Z,0.7
2017-11-19T02:47:38.940Z,0.7
2017-11-19T02:48:38.987Z,0.7
2017-11-19T02:49:38.719Z,0.7
2017-11-19T02:50:38.977Z,0.7
2017-11-19T02:51:38.726Z,0.7
2017-11-19T02:52:38.946Z,0.6
2017-11-19T02:53:39.047Z,0.6
2017-11-19T02:54:38.771Z,0.6
2017-11-19T02:55:38.729Z,0.7
2017-11-19T02:56:39.998Z,0.7
2017-11-19T02:57:39.001Z,0.6
2017-11-19T02:58:38.963Z,0.6
2017-11-19T02:59:38.996Z,0.6
2017-11-19T03:00:38.997Z,0.6
2017-11-19T03:01:38.718Z,0.6
2017-11-19T03:02:38.982Z,0.6
2017-11-19T03:03:39.022Z,0.6
2017-11-19T03:04:38.983Z,0.6
2017-11-19T03:05:39.034Z,0.6
2017-11-19T03:06:39.012Z,0.6
2017-11-19T03:07:38.997Z,0.6
2017-11-19T03:08:38.964Z,0.6
2017-11-19T03:09:38.983Z,0.6
2017-11-19T03:10:39.015Z,0.6
2017-11-19T03:11:38.991Z,0.6
2017-11-19T03:12:39.003Z,0.6
2017-11-19T03:13:38.985Z,0.6
2017-11-19T03:14:38.751Z,0.6
2017-11-19T03:15:39.003Z,0.7
2017-11-19T03:16:38.991Z,0.7
2017-11-19T03:17:39.000Z,0.7
2017-11-19T03:18:39.012Z,0.7
2017-11-19T03:19:38.794Z,0.7
2017-11-19T03:20:38.978Z,0.7
2017-11-19T03:21:38.991Z,0.7
2017-11-19T03:22:38.767Z,0.7
2017-11-19T03:23:38.840Z,0.7
2017-11-19T03:24:39.069Z,0.7
2017-11-19T03:25:39.070Z,0.7
2017-11-19T03:26:38.838Z,0.7
2017-11-19T03:27:39.088Z,0.7
2017-11-19T03:28:39.052Z,0.7
2017-11-19T03:29:39.055Z,0.7
2017-11-19T03:30:38.959Z,0.7
2017-11-19T03:31:38.816Z,0.7
2017-11-19T03:32:39.074Z,0.7
2017-11-19T03:33:38.842Z,0.8
2017-11-19T03:34:39.088Z,0.8
2017-11-19T03:35:39.048Z,0.8
2017-11-19T03:36:38.820Z,0.8
2017-11-19T03:37:39.028Z,0.8
2017-11-19T03:38:38.786Z,0.8
2017-11-19T03:39:38.784Z,0.8
2017-11-19T03:40:39.051Z,0.8
2017-11-19T03:41:39.009Z,0.8
2017-11-19T03:42:39.044Z,0.8
2017-11-19T03:43:39.070Z,0.8
2017-11-19T03:44:39.024Z,0.8
2017-11-19T03:45:38.833Z,0.9
2017-11-19T03:46:39.033Z,0.9
2017-11-19T03:47:39.024Z,0.9
2017-11-19T03:48:39.070Z,0.9
2017-11-19T03:49:39.040Z,0.9
2017-11-19T03:50:38.997Z,0.9
2017-11-19T03:51:38.858Z,1.0
2017-11-19T03:52:39.068Z,1.0
2017-11-19T03:53:39.017Z,1.0
2017-11-19T03:54:39.079Z,1.0
2017-11-19T03:55:38.872Z,1.0
2017-11-19T03:56:39.115Z,1.0
2017-11-19T03:57:38.878Z,1.0
2017-11-19T03:58:38.868Z,1.0
2017-11-19T03:59:39.094Z,1.0
2017-11-19T04:00:39.230Z,1.0
2017-11-19T04:01:39.119Z,1.0
2017-11-19T04:02:39.079Z,1.0
2017-11-19T04:03:39.090Z,1.1
2017-11-19T04:04:39.109Z,1.1
2017-11-19T04:05:39.100Z,1.1
2017-11-19T04:06:39.088Z,1.1
2017-11-19T04:07:38.899Z,1.1
2017-11-19T04:08:39.073Z,1.1
2017-11-19T04:09:39.092Z,1.1
2017-11-19T04:10:38.930Z,1.1
2017-11-19T04:11:38.882Z,1.2
2017-11-19T04:12:39.135Z,1.2
2017-11-19T04:13:38.874Z,1.2
2017-11-19T04:14:39.131Z,1.2
2017-11-19T04:15:39.070Z,1.2
2017-11-19T04:16:39.090Z,1.3
2017-11-19T04:17:39.140Z,1.3
2017-11-19T04:18:39.099Z,1.3
2017-11-19T04:19:39.088Z,1.3
2017-11-19T04:20:39.107Z,1.3
2017-11-19T04:21:39.135Z,1.4
2017-11-19T04:22:39.089Z,1.4
2017-11-19T04:23:38.926Z,1.4
2017-11-19T04:24:39.159Z,1.4
2017-11-19T04:25:39.136Z,1.4
2017-11-19T04:26:39.126Z,1.5
2017-11-19T04:27:38.930Z,1.5
2017-11-19T04:28:38.904Z,1.5
2017-11-19T04:29:39.149Z,1.5
2017-11-19T04:30:39.098Z,1.5
2017-11-19T04:31:39.132Z,1.5
2017-11-19T04:32:38.882Z,1.5
2017-11-19T04:33:39.150Z,1.5
2017-11-19T04:34:39.178Z,1.5
2017-11-19T04:35:39.145Z,1.5
2017-11-19T04:36:38.925Z,1.6
2017-11-19T04:37:38.978Z,1.6
2017-11-19T04:38:39.111Z,1.6
2017-11-19T04:39:39.174Z,1.6
2017-11-19T04:40:39.313Z,1.6
2017-11-19T04:41:39.160Z,1.7
2017-11-19T04:42:39.114Z,1.7
2017-11-19T04:43:39.174Z,1.7
2017-11-19T04:44:39.167Z,1.7
2017-11-19T04:45:39.167Z,1.7
2017-11-19T04:46:38.919Z,1.7
2017-11-19T04:47:38.977Z,1.7
2017-11-19T04:48:39.156Z,1.7
2017-11-19T04:49:39.173Z,1.7
2017-11-19T04:50:38.941Z,1.7
2017-11-19T04:51:39.196Z,1.7
2017-11-19T04:52:39.193Z,1.8
2017-11-19T04:53:38.974Z,1.8
2017-11-19T04:54:39.198Z,1.8
2017-11-19T04:55:38.962Z,1.8
2017-11-19T04:56:39.206Z,1.8
2017-11-19T04:57:38.988Z,1.8
2017-11-19T04:58:39.202Z,1.8
2017-11-19T04:59:38.971Z,1.8
2017-11-19T05:00:39.156Z,1.8
2017-11-19T05:01:39.236Z,1.8
2017-11-19T05:02:39.199Z,1.9
2017-11-19T05:03:39.180Z,1.9
2017-11-19T05:04:39.200Z,1.9
2017-11-19T05:05:41.281Z,1.9
2017-11-19T05:06:39.199Z,1.9
2017-11-19T05:07:39.260Z,1.9
2017-11-19T05:08:39.184Z,1.9
2017-11-19T05:09:39.197Z,2.0
2017-11-19T05:10:39.177Z,2.0
2017-11-19T05:11:39.228Z,2.0
2017-11-19T05:12:39.235Z,2.1
2017-11-19T05:13:39.214Z,2.1
2017-11-19T05:14:39.410Z,2.1
2017-11-19T05:15:38.974Z,2.1
2017-11-19T05:16:39.232Z,2.1
2017-11-19T05:17:39.203Z,2.1
2017-11-19T05:18:39.188Z,2.1
2017-11-19T05:19:39.244Z,2.2
2017-11-19T05:20:39.212Z,2.2
2017-11-19T05:21:39.115Z,2.2
2017-11-19T05:22:39.215Z,2.3
2017-11-19T05:23:39.027Z,2.3
2017-11-19T05:24:39.315Z,2.3
2017-11-19T05:25:39.207Z,2.3
2017-11-19T05:26:39.231Z,2.3
2017-11-19T05:27:39.226Z,2.3
2017-11-19T05:28:39.258Z,2.3
2017-11-19T05:29:39.276Z,2.3
2017-11-19T05:30:40.037Z,2.3
2017-11-19T05:31:42.683Z,2.3
2017-11-19T05:32:39.599Z,2.3
2017-11-19T05:33:39.769Z,2.3
2017-11-19T05:34:39.258Z,2.3
2017-11-19T05:35:39.100Z,2.4
2017-11-19T05:36:39.302Z,2.4
2017-11-19T05:37:39.256Z,2.5
2017-11-19T05:38:39.137Z,2.5
2017-11-19T05:39:39.102Z,2.5
2017-11-19T05:40:39.075Z,2.5
2017-11-19T05:41:39.130Z,2.5
2017-11-19T05:42:39.367Z,2.5
2017-11-19T05:43:39.079Z,2.5
2017-11-19T05:44:39.058Z,2.5
2017-11-19T05:45:39.266Z,2.5
2017-11-19T05:46:39.281Z,2.5
2017-11-19T05:47:39.269Z,2.6
2017-11-19T05:48:39.281Z,2.6
2017-11-19T05:49:39.245Z,2.6
2017-11-19T05:50:39.319Z,2.6
2017-11-19T05:51:39.312Z,2.6
2017-11-19T05:52:39.252Z,2.6
2017-11-19T05:53:39.302Z,2.6
2017-11-19T05:54:39.277Z,2.6
2017-11-19T05:55:39.334Z,2.6
2017-11-19T05:56:39.247Z,2.6
2017-11-19T05:57:39.948Z,2.6
2017-11-19T05:58:39.058Z,2.6
2017-11-19T05:59:39.312Z,2.6
2017-11-19T06:00:40.022Z,2.6
2017-11-19T06:01:39.200Z,2.6
2017-11-19T06:02:39.321Z,2.6
2017-11-19T06:03:39.235Z,2.6
2017-11-19T06:04:39.341Z,2.6
2017-11-19T06:05:49.302Z,2.6
2017-11-19T06:06:39.307Z,2.6
2017-11-19T06:07:39.335Z,2.6
2017-11-19T06:08:39.318Z,2.6
2017-11-19T06:09:39.302Z,2.6
2017-11-19T06:10:39.365Z,2.6
2017-11-19T06:11:39.454Z,2.6
2017-11-19T06:12:39.371Z,2.6
2017-11-19T06:13:39.348Z,2.8
2017-11-19T06:14:39.357Z,2.8
2017-11-19T06:15:39.283Z,2.8
2017-11-19T06:16:39.307Z,2.8
2017-11-19T06:17:39.309Z,2.8
2017-11-19T06:18:39.310Z,2.9
2017-11-19T06:19:39.341Z,2.9
2017-11-19T06:20:39.675Z,2.9
2017-11-19T06:21:39.449Z,2.9
2017-11-19T06:22:39.172Z,2.9
2017-11-19T06:23:39.295Z,2.9
2017-11-19T06:24:39.176Z,2.9
2017-11-19T06:25:39.349Z,2.9
2017-11-19T06:26:39.300Z,2.9
2017-11-19T06:27:39.377Z,2.9
2017-11-19T06:28:39.349Z,2.9
2017-11-19T06:29:39.336Z,2.9
2017-11-19T06:30:39.387Z,2.9
2017-11-19T06:31:39.356Z,2.8
2017-11-19T06:32:39.335Z,2.8
2017-11-19T06:33:39.129Z,2.9
2017-11-19T06:34:39.348Z,2.9
2017-11-19T06:35:39.207Z,2.9
2017-11-19T06:36:39.389Z,2.8
2017-11-19T06:37:39.362Z,2.8
2017-11-19T06:38:39.382Z,2.7
2017-11-19T06:39:39.373Z,2.7
2017-11-19T06:40:39.370Z,2.7
2017-11-19T06:41:39.407Z,2.7
2017-11-19T06:42:39.116Z,2.7
2017-11-19T06:43:39.358Z,2.5
2017-11-19T06:44:39.173Z,2.5
2017-11-19T06:45:42.865Z,2.5
2017-11-19T06:46:39.344Z,2.4
2017-11-19T06:47:39.835Z,2.4
2017-11-19T06:48:39.344Z,2.3
2017-11-19T06:49:39.355Z,2.3
2017-11-19T06:50:40.697Z,2.3
2017-11-19T06:51:39.422Z,2.3
2017-11-19T06:52:42.437Z,2.3
2017-11-19T06:53:39.379Z,2.3
2017-11-19T06:54:39.356Z,2.4
2017-11-19T06:55:39.370Z,2.4
2017-11-19T06:56:39.350Z,2.4
2017-11-19T06:57:39.408Z,2.4
2017-11-19T06:58:40.668Z,2.4
2017-11-19T06:59:39.435Z,2.4
2017-11-19T07:00:40.746Z,2.4
2017-11-19T07:01:48.400Z,2.4
2017-11-19T07:02:41.198Z,2.4
2017-11-19T07:03:41.532Z,2.4
2017-11-19T07:04:42.540Z,2.4
2017-11-19T07:05:40.522Z,2.4
2017-11-19T07:06:44.847Z,2.4
2017-11-19T07:07:42.410Z,2.4
2017-11-19T07:08:45.062Z,2.4
2017-11-19T07:09:44.011Z,2.4
2017-11-19T07:10:45.076Z,2.4
2017-11-19T07:11:46.966Z,2.4
2017-11-19T07:12:44.515Z,2.4
2017-11-19T07:13:40.181Z,2.4
2017-11-19T07:14:49.911Z,2.4
2017-11-19T07:15:40.341Z,2.4
2017-11-19T07:16:42.910Z,2.4
2017-11-19T07:17:45.566Z,2.4
2017-11-19T07:18:45.991Z,2.4
2017-11-19T07:19:43.953Z,2.5
2017-11-19T07:20:41.121Z,2.5
2017-11-19T07:21:44.841Z,2.5
2017-11-19T07:22:43.484Z,2.5
2017-11-19T07:23:39.389Z,2.5
2017-11-19T07:24:40.634Z,2.5
2017-11-19T07:25:44.634Z,2.5
2017-11-19T07:26:44.868Z,2.5
2017-11-19T07:28:04.339Z,2.5
2017-11-19T07:28:40.013Z,2.5
2017-11-19T07:29:47.544Z,2.6
2017-11-19T07:30:41.521Z,2.6
2017-11-19T07:31:43.664Z,2.6
2017-11-19T07:32:49.279Z,2.6
2017-11-19T07:33:43.048Z,2.6
2017-11-19T07:34:41.957Z,2.5
2017-11-19T07:35:41.708Z,2.5
2017-11-19T07:36:41.466Z,2.5
2017-11-19T07:37:47.753Z,2.5
2017-11-19T07:38:41.417Z,2.5
2017-11-19T07:39:45.213Z,2.5
2017-11-19T07:40:42.347Z,2.5
2017-11-19T07:41:39.686Z,2.5
2017-11-19T07:42:41.495Z,2.5
2017-11-19T07:43:39.332Z,2.5
2017-11-19T07:44:39.552Z,2.6
2017-11-19T07:45:41.484Z,2.6
2017-11-19T07:46:39.488Z,2.6
2017-11-19T07:47:39.339Z,2.7
2017-11-19T07:48:40.042Z,2.7
2017-11-19T07:49:39.334Z,2.7
2017-11-19T07:50:39.474Z,2.7
2017-11-19T07:51:39.539Z,2.7
2017-11-19T07:52:39.514Z,2.6
2017-11-19T07:53:39.560Z,2.6
2017-11-19T07:54:39.275Z,2.6
2017-11-19T07:55:41.706Z,2.6
2017-11-19T07:56:39.300Z,2.6
2017-11-19T07:57:39.543Z,2.7
2017-11-19T07:58:39.539Z,2.7
2017-11-19T07:59:39.562Z,2.7
2017-11-19T08:00:39.542Z,2.7
2017-11-19T08:01:39.608Z,2.7
2017-11-19T08:02:39.544Z,2.7
2017-11-19T08:03:39.519Z,2.7
2017-11-19T08:04:39.277Z,2.7
2017-11-19T08:05:41.834Z,2.7
2017-11-19T08:06:39.297Z,2.7
2017-11-19T08:07:39.585Z,2.7
2017-11-19T08:08:39.577Z,2.7
2017-11-19T08:09:39.980Z,2.7
2017-11-19T08:10:39.577Z,2.7
2017-11-19T08:11:39.636Z,2.7
2017-11-19T08:12:39.503Z,2.7
2017-11-19T08:13:39.896Z,2.7
2017-11-19T08:14:39.588Z,2.7
2017-11-19T08:15:40.694Z,2.8
2017-11-19T08:16:39.435Z,2.8
2017-11-19T08:17:40.761Z,2.9
2017-11-19T08:18:54.677Z,2.9
2017-11-19T08:19:39.526Z,2.9
2017-11-19T08:20:40.787Z,3.0
2017-11-19T08:21:39.418Z,3.0
2017-11-19T08:22:39.583Z,3.1
2017-11-19T08:23:39.609Z,3.1
2017-11-19T08:24:39.855Z,3.1
2017-11-19T08:25:39.942Z,3.0
2017-11-19T08:26:39.582Z,3.0
2017-11-19T08:27:39.687Z,3.0
2017-11-19T08:28:39.589Z,3.0
2017-11-19T08:29:39.697Z,3.0
2017-11-19T08:30:39.744Z,2.9
2017-11-19T08:31:46.756Z,2.9
2017-11-19T08:32:39.679Z,2.9
2017-11-19T08:33:40.128Z,2.9
2017-11-19T08:34:39.912Z,2.9
2017-11-19T08:35:39.714Z,2.9
2017-11-19T08:36:40.260Z,2.9
2017-11-19T08:37:40.322Z,2.9
2017-11-19T08:38:39.624Z,2.9
2017-11-19T08:39:39.852Z,2.9
2017-11-19T08:40:39.633Z,2.8
2017-11-19T08:41:39.681Z,2.8
2017-11-19T08:42:39.728Z,2.8
2017-11-19T08:43:39.913Z,2.8
2017-11-19T08:44:47.871Z,2.8
2017-11-19T08:45:42.824Z,2.8
2017-11-19T08:46:40.054Z,2.8
2017-11-19T08:47:40.210Z,2.8
2017-11-19T08:48:43.363Z,3.0
2017-11-19T08:49:44.972Z,3.0
2017-11-19T08:50:39.697Z,3.1
2017-11-19T08:51:39.536Z,3.1
2017-11-19T08:52:41.114Z,3.1
2017-11-19T08:53:39.707Z,3.1
2017-11-19T08:54:40.163Z,3.1
2017-11-19T08:55:40.722Z,3.1
2017-11-19T08:56:39.867Z,3.0
2017-11-19T08:57:40.513Z,3.0
2017-11-19T08:58:39.907Z,3.0
2017-11-19T08:59:40.078Z,3.0
2017-11-19T09:00:40.435Z,3.0
2017-11-19T09:01:40.379Z,3.0
2017-11-19T09:02:40.457Z,3.0
2017-11-19T09:03:39.572Z,3.1
2017-11-19T09:04:41.262Z,3.1
2017-11-19T09:05:40.665Z,3.1
2017-11-19T09:06:39.710Z,3.1
2017-11-19T09:07:41.204Z,3.1
2017-11-19T09:08:40.819Z,3.1
2017-11-19T09:09:39.890Z,3.1
2017-11-19T09:10:42.208Z,3.1
2017-11-19T09:11:43.170Z,3.0
2017-11-19T09:12:42.234Z,3.0
2017-11-19T09:13:39.899Z,3.1
2017-11-19T09:14:42.528Z,3.1
2017-11-19T09:15:41.693Z,3.1
2017-11-19T09:16:39.493Z,3.1
2017-11-19T09:17:47.441Z,3.1
2017-11-19T09:18:55.431Z,3.1
2017-11-19T09:19:41.208Z,3.1
2017-11-19T09:20:43.157Z,3.1
2017-11-19T09:21:41.981Z,3.1
2017-11-19T09:22:45.972Z,3.1
2017-11-19T09:23:41.987Z,3.2
2017-11-19T09:24:41.397Z,3.2
2017-11-19T09:25:42.335Z,3.2
2017-11-19T09:26:43.648Z,3.4
2017-11-19T09:27:39.748Z,3.4
2017-11-19T09:28:43.572Z,3.4
2017-11-19T09:29:39.707Z,3.3
2017-11-19T09:30:41.302Z,3.3
2017-11-19T09:31:42.764Z,3.3
2017-11-19T09:32:44.397Z,3.3
2017-11-19T09:33:41.162Z,3.3
2017-11-19T09:34:46.896Z,3.3
2017-11-19T09:35:46.999Z,3.3
2017-11-19T09:36:39.491Z,3.5
2017-11-19T09:37:39.470Z,3.5
2017-11-19T09:38:40.297Z,3.5
2017-11-19T09:39:39.430Z,3.5
2017-11-19T09:40:42.890Z,3.5
2017-11-19T09:41:39.701Z,3.6
2017-11-19T09:42:39.737Z,3.6
2017-11-19T09:43:39.744Z,3.6
2017-11-19T09:44:39.551Z,3.9
2017-11-19T09:45:39.726Z,3.9
2017-11-19T09:46:39.779Z,3.9
2017-11-19T09:47:40.147Z,3.9
2017-11-19T09:48:59.713Z,3.9
2017-11-19T09:49:41.412Z,3.9
2017-11-19T09:50:39.768Z,3.9
2017-11-19T09:51:41.726Z,4.1
2017-11-19T09:52:40.535Z,4.1
2017-11-19T09:53:39.584Z,4.1
2017-11-19T09:54:39.636Z,4.1
2017-11-19T09:55:39.934Z,4.1
2017-11-19T09:56:40.536Z,4.1
2017-11-19T09:57:39.949Z,4.4
2017-11-19T09:58:40.620Z,4.4
2017-11-19T09:59:50.132Z,4.4
2017-11-19T10:01:01.939Z,4.4
2017-11-19T10:01:39.740Z,4.4
2017-11-19T10:02:39.791Z,4.3
2017-11-19T10:03:39.742Z,4.3
2017-11-19T10:04:39.846Z,4.8
2017-11-19T10:05:39.821Z,4.8
2017-11-19T10:06:39.782Z,4.8
2017-11-19T10:07:39.645Z,4.5
2017-11-19T10:08:39.801Z,4.5
2017-11-19T10:09:39.664Z,4.3
2017-11-19T10:10:39.976Z,4.3
2017-11-19T10:11:39.823Z,4.3
2017-11-19T10:12:39.955Z,4.3
2017-11-19T10:13:39.921Z,4.3
2017-11-19T10:14:40.045Z,4.3
2017-11-19T10:15:39.653Z,4.3
2017-11-19T10:16:40.538Z,4.3
2017-11-19T10:17:39.846Z,4.3
2017-11-19T10:18:40.474Z,4.3
2017-11-19T10:19:39.797Z,4.2
2017-11-19T10:20:39.803Z,4.2
2017-11-19T10:21:42.195Z,4.2
2017-11-19T10:22:41.065Z,4.4
2017-11-19T10:23:40.500Z,4.4
2017-11-19T10:24:39.827Z,4.6
2017-11-19T10:25:40.263Z,4.6
2017-11-19T10:26:49.873Z,4.6
2017-11-19T10:27:39.908Z,4.4
2017-11-19T10:28:39.846Z,4.4
2017-11-19T10:29:39.861Z,4.4
2017-11-19T10:30:39.809Z,4.4
2017-11-19T10:31:39.783Z,4.4
2017-11-19T10:32:39.822Z,4.6
2017-11-19T10:33:39.803Z,4.6
2017-11-19T10:34:39.848Z,4.6
2017-11-19T10:35:39.817Z,4.3
2017-11-19T10:36:39.851Z,4.3
2017-11-19T10:37:40.030Z,4.5
2017-11-19T10:38:39.887Z,4.5
2017-11-19T10:39:39.629Z,4.5
2017-11-19T10:40:39.892Z,4.3
2017-11-19T10:41:39.680Z,4.3
2017-11-19T10:42:39.854Z,4.1
2017-11-19T10:43:39.878Z,4.1
2017-11-19T10:44:39.873Z,4.1
2017-11-19T10:45:39.852Z,4.2
2017-11-19T10:46:39.898Z,4.2
2017-11-19T10:47:40.008Z,3.9
2017-11-19T10:48:39.826Z,3.9
2017-11-19T10:49:39.822Z,3.9
2017-11-19T10:50:39.702Z,4.0
2017-11-19T10:51:39.922Z,4.0
2017-11-19T10:52:39.813Z,4.0
2017-11-19T10:53:39.844Z,4.0
2017-11-19T10:54:39.897Z,4.0
2017-11-19T10:55:40.947Z,4.0
2017-11-19T10:56:39.704Z,4.0
2017-11-19T10:57:39.871Z,4.0
2017-11-19T10:58:42.179Z,4.3
2017-11-19T10:59:40.549Z,4.3
2017-11-19T11:00:42.243Z,4.1
2017-11-19T11:01:39.863Z,4.1
2017-11-19T11:02:39.898Z,4.1
2017-11-19T11:03:41.854Z,4.5
2017-11-19T11:04:41.338Z,4.5
2017-11-19T11:06:24.857Z,4.5
2017-11-19T11:06:39.954Z,4.5
2017-11-19T11:07:40.938Z,4.5
2017-11-19T11:08:39.966Z,4.7
2017-11-19T11:09:42.203Z,4.7
2017-11-19T11:10:41.045Z,4.6
2017-11-19T11:11:40.319Z,4.6
2017-11-19T11:12:40.518Z,4.6
2017-11-19T11:13:40.115Z,4.5
2017-11-19T11:14:40.255Z,4.5
2017-11-19T11:15:39.976Z,4.4
2017-11-19T11:16:40.710Z,4.4
2017-11-19T11:17:40.466Z,4.4
2017-11-19T11:18:39.829Z,4.4
2017-11-19T11:19:40.607Z,4.4
2017-11-19T11:20:45.702Z,4.6
2017-11-19T11:21:41.747Z,4.6
2017-11-19T11:22:39.979Z,4.6
2017-11-19T11:23:40.052Z,4.6
2017-11-19T11:24:40.651Z,4.6
2017-11-19T11:25:40.192Z,4.9
2017-11-19T11:26:41.837Z,4.9
2017-11-19T11:27:41.020Z,4.9
2017-11-19T11:28:40.087Z,5.4
2017-11-19T11:29:39.922Z,5.4
2017-11-19T11:30:39.794Z,5.4
2017-11-19T11:31:39.776Z,5.2
2017-11-19T11:32:39.993Z,5.2
2017-11-19T11:33:39.773Z,4.9
2017-11-19T11:34:39.988Z,4.9
2017-11-19T11:35:40.987Z,4.9
2017-11-19T11:36:40.867Z,4.9
2017-11-19T11:37:39.834Z,4.9
2017-11-19T11:38:40.011Z,4.7
2017-11-19T11:39:40.025Z,4.7
2017-11-19T11:40:40.008Z,4.7
2017-11-19T11:41:40.032Z,4.6
2017-11-19T11:42:40.055Z,4.6
2017-11-19T11:43:40.069Z,4.8
2017-11-19T11:44:40.078Z,4.8
2017-11-19T11:45:40.524Z,4.8
2017-11-19T11:46:40.050Z,4.9
2017-11-19T11:47:40.084Z,4.9
2017-11-19T11:48:41.149Z,5.2
2017-11-19T11:49:40.031Z,5.2
2017-11-19T11:50:40.026Z,5.2
2017-11-19T11:51:40.034Z,5.4
2017-11-19T11:52:40.089Z,5.4
2017-11-19T11:53:39.971Z,5.3
2017-11-19T11:54:40.177Z,5.3
2017-11-19T11:55:40.717Z,5.3
2017-11-19T11:56:40.615Z,5.2
2017-11-19T11:57:40.163Z,5.2
2017-11-19T11:58:40.973Z,5.2
2017-11-19T11:59:40.067Z,4.7
2017-11-19T12:00:41.584Z,4.7
2017-11-19T12:01:40.429Z,4.7
2017-11-19T12:02:40.201Z,4.7
2017-11-19T12:03:41.282Z,4.7
2017-11-19T12:04:40.374Z,4.6
2017-11-19T12:05:40.991Z,4.6
2017-11-19T12:06:40.274Z,4.6
2017-11-19T12:07:40.242Z,4.6
2017-11-19T12:08:40.148Z,4.6
2017-11-19T12:09:39.947Z,4.5
2017-11-19T12:10:40.795Z,4.5
2017-11-19T12:11:40.479Z,4.5
2017-11-19T12:12:41.825Z,4.5
2017-11-19T12:13:50.264Z,4.5
2017-11-19T12:14:40.214Z,4.5
2017-11-19T12:15:40.324Z,4.5
2017-11-19T12:16:40.044Z,4.5
2017-11-19T12:17:40.216Z,4.5
2017-11-19T12:18:39.994Z,4.5
2017-11-19T12:19:40.223Z,4.7
2017-11-19T12:20:40.186Z,4.7
2017-11-19T12:21:40.396Z,4.6
2017-11-19T12:22:40.444Z,4.6
2017-11-19T12:23:40.230Z,4.6
2017-11-19T12:24:40.906Z,4.7
2017-11-19T12:25:40.277Z,4.7
2017-11-19T12:26:40.480Z,5.1
2017-11-19T12:27:40.317Z,5.1
2017-11-19T12:28:40.510Z,5.1
2017-11-19T12:29:40.153Z,5.1
2017-11-19T12:30:40.129Z,5.1
2017-11-19T12:31:41.150Z,5.1
2017-11-19T12:32:40.185Z,4.8
2017-11-19T12:33:54.644Z,4.8
2017-11-19T12:34:40.244Z,4.8
2017-11-19T12:35:40.144Z,4.8
2017-11-19T12:36:40.283Z,4.8
2017-11-19T12:37:40.453Z,4.8
2017-11-19T12:38:40.430Z,4.8
2017-11-19T12:39:40.371Z,4.9
2017-11-19T12:40:40.441Z,4.9
2017-11-19T12:41:40.420Z,4.9
2017-11-19T12:42:41.248Z,4.8
2017-11-19T12:43:40.365Z,4.8
2017-11-19T12:44:52.065Z,4.8
2017-11-19T12:45:40.328Z,4.8
2017-11-19T12:46:40.162Z,4.8
2017-11-19T12:47:40.195Z,4.6
2017-11-19T12:48:40.396Z,4.6
2017-11-19T12:49:40.326Z,4.7
2017-11-19T12:50:40.339Z,4.7
2017-11-19T12:51:40.190Z,4.7
2017-11-19T12:52:40.146Z,4.7
2017-11-19T12:53:40.160Z,4.7
2017-11-19T12:54:40.320Z,4.7
2017-11-19T12:55:40.167Z,4.7
2017-11-19T12:56:40.281Z,4.7
2017-11-19T12:57:40.049Z,4.7
2017-11-19T12:58:41.045Z,4.7
2017-11-19T12:59:40.094Z,4.7
2017-11-19T13:00:40.281Z,4.7
2017-11-19T13:01:40.356Z,4.7
2017-11-19T13:02:40.040Z,4.7
2017-11-19T13:03:40.087Z,4.7
2017-11-19T13:04:40.313Z,4.7
2017-11-19T13:05:40.046Z,4.7
2017-11-19T13:06:40.291Z,4.7
2017-11-19T13:07:40.248Z,4.7
2017-11-19T13:08:43.855Z,4.7
2017-11-19T13:09:40.264Z,4.7
2017-11-19T13:10:40.330Z,4.7
2017-11-19T13:11:40.342Z,4.7
2017-11-19T13:12:40.315Z,4.7
2017-11-19T13:13:40.258Z,4.7
2017-11-19T13:14:40.202Z,4.7
2017-11-19T13:15:40.346Z,4.8
2017-11-19T13:16:40.045Z,4.8
2017-11-19T13:17:40.264Z,4.8
2017-11-19T13:18:41.336Z,4.8
2017-11-19T13:19:40.992Z,4.8
2017-11-19T13:20:40.255Z,4.8
2017-11-19T13:21:40.210Z,4.8
2017-11-19T13:22:40.299Z,4.7
2017-11-19T13:23:41.202Z,4.7
2017-11-19T13:24:40.324Z,4.7
2017-11-19T13:25:41.846Z,4.7
2017-11-19T13:26:40.205Z,4.7
2017-11-19T13:27:40.479Z,4.8
2017-11-19T13:28:50.492Z,4.8
2017-11-19T13:29:40.197Z,4.8
2017-11-19T13:30:40.172Z,5.1
2017-11-19T13:31:40.296Z,5.1
2017-11-19T13:32:40.383Z,5.1
2017-11-19T13:33:40.425Z,4.7
2017-11-19T13:34:40.441Z,4.7
2017-11-19T13:35:40.410Z,4.7
2017-11-19T13:36:41.075Z,4.7
2017-11-19T13:37:55.556Z,4.7
2017-11-19T13:38:40.275Z,4.7
2017-11-19T13:39:40.148Z,4.7
2017-11-19T13:40:40.848Z,4.6
2017-11-19T13:42:07.231Z,4.6
2017-11-19T13:43:07.090Z,4.7
2017-11-19T13:44:07.118Z,4.7
2017-11-19T13:45:07.318Z,4.7
2017-11-19T13:46:07.298Z,4.7
2017-11-19T13:47:07.375Z,4.7
2017-11-19T13:48:07.515Z,4.8